createdAt,value
2019-03-21T00:01:38.671Z,97.03
2019-03-21T00:04:13.184Z,89.40
2019-03-21T00:06:44.201Z,97.80
2019-03-21T00:09:17.765Z,91.25
2019-03-21T00:12:09.556Z,93.30
2019-03-21T00:15:14.585Z,102.37
2019-03-21T00:17:50.632Z,101.47
2019-03-21T00:20:21.569Z,92.37
2019-03-21T00:22:52.514Z,100.03
2019-03-21T00:25:24.831Z,95.40
2019-03-21T00:27:55.821Z,106.63
2019-03-21T00:30:26.972Z,100.50
2019-03-21T00:32:58.066Z,96.47
2019-03-21T00:35:29.098Z,102.63
2019-03-21T00:38:00.098Z,103.23
2019-03-21T00:40:35.028Z,107.53
2019-03-21T00:43:09.477Z,100.17
2019-03-21T00:45:40.405Z,99.63
2019-03-21T00:48:14.055Z,93.77
2019-03-21T00:50:45.097Z,105.77
2019-03-21T00:53:16.044Z,104.75
2019-03-21T00:55:48.045Z,96.00
2019-03-21T00:58:18.980Z,97.22
2019-03-21T01:00:53.148Z,100.07
2019-03-21T01:03:24.140Z,93.75
2019-03-21T01:05:55.133Z,92.10
2019-03-21T01:08:25.988Z,88.27
2019-03-21T01:10:56.975Z,97.30
2019-03-21T01:13:31.426Z,98.40
2019-03-21T01:16:02.440Z,91.83
2019-03-21T01:18:33.495Z,90.13
2019-03-21T01:21:04.366Z,97.80
2019-03-21T01:23:35.411Z,89.73
2019-03-21T01:26:07.996Z,82.00
2019-03-21T01:28:39.257Z,81.30
2019-03-21T01:31:10.498Z,88.50
2019-03-21T01:33:42.003Z,77.07
2019-03-21T01:36:12.986Z,85.70
2019-03-21T01:38:44.119Z,77.67
2019-03-21T01:41:15.360Z,60.05
2019-03-21T01:43:46.412Z,69.97
2019-03-21T01:46:17.862Z,68.80
2019-03-21T01:48:48.969Z,73.67
2019-03-21T01:51:19.952Z,74.20
2019-03-21T01:53:50.984Z,69.23
2019-03-21T01:56:22.015Z,77.43
2019-03-21T01:58:53.368Z,74.33
2019-03-21T02:01:24.491Z,72.08
2019-03-21T02:03:55.456Z,65.97
2019-03-21T02:06:27.257Z,62.57
2019-03-21T02:08:58.470Z,72.43
2019-03-21T02:11:29.539Z,70.22
2019-03-21T02:14:00.561Z,76.10
2019-03-21T02:16:31.671Z,69.77
2019-03-21T02:19:02.729Z,75.17
2019-03-21T02:21:34.025Z,82.37
2019-03-21T02:24:05.881Z,74.47
2019-03-21T02:26:37.180Z,74.13
2019-03-21T02:29:08.341Z,78.80
2019-03-21T02:31:39.561Z,78.57
2019-03-21T02:34:11.035Z,72.43
2019-03-21T02:36:42.518Z,74.93
2019-03-21T02:39:13.877Z,79.10
2019-03-21T02:41:44.931Z,76.87
2019-03-21T02:44:15.998Z,72.50
2019-03-21T02:46:47.021Z,64.03
2019-03-21T02:49:18.027Z,73.50
2019-03-21T02:51:49.212Z,66.27
2019-03-21T02:54:20.447Z,67.33
2019-03-21T02:56:51.994Z,67.67
2019-03-21T02:59:25.488Z,72.12
2019-03-21T03:01:56.812Z,71.67
2019-03-21T03:04:27.981Z,76.80
2019-03-21T03:06:59.894Z,67.80
2019-03-21T03:09:30.993Z,61.97
2019-03-21T03:12:02.106Z,66.80
2019-03-21T03:14:32.974Z,60.40
2019-03-21T03:17:03.901Z,62.53
2019-03-21T03:19:34.912Z,67.83
2019-03-21T03:22:05.973Z,61.80
2019-03-21T03:24:38.458Z,53.73
2019-03-21T03:27:09.346Z,57.65
2019-03-21T03:29:40.323Z,60.17
2019-03-21T03:32:11.372Z,54.23
2019-03-21T03:34:42.335Z,53.80
2019-03-21T03:37:13.306Z,52.17
2019-03-21T03:39:44.168Z,45.97
2019-03-21T03:42:15.088Z,49.37
2019-03-21T03:44:45.974Z,50.20
2019-03-21T03:47:16.908Z,45.80
2019-03-21T03:49:47.783Z,48.73
2019-03-21T03:52:18.715Z,50.13
2019-03-21T03:54:49.669Z,44.93
2019-03-21T03:57:20.672Z,44.73
2019-03-21T03:59:51.680Z,42.53
2019-03-21T04:02:22.701Z,45.00
2019-03-21T04:04:53.622Z,43.97
2019-03-21T04:07:25.043Z,42.57
2019-03-21T04:09:56.015Z,40.10
2019-03-21T04:12:26.969Z,41.97
2019-03-21T04:14:57.995Z,39.27
2019-03-21T04:17:29.037Z,38.70
2019-03-21T04:19:59.893Z,41.57
2019-03-21T04:22:30.825Z,44.37
2019-03-21T04:25:01.959Z,41.50
2019-03-21T04:27:33.027Z,43.93
2019-03-21T04:30:04.081Z,48.37
2019-03-21T04:32:35.000Z,51.50
2019-03-21T04:35:06.600Z,56.07
2019-03-21T04:37:37.487Z,53.93
2019-03-21T04:40:09.877Z,59.27
2019-03-21T04:42:40.864Z,57.30
2019-03-21T04:45:15.994Z,65.72
2019-03-21T04:47:46.947Z,69.37
2019-03-21T04:50:21.651Z,66.22
2019-03-21T04:52:52.633Z,69.23
2019-03-21T04:55:23.572Z,70.33
2019-03-21T04:57:54.646Z,71.10
2019-03-21T05:00:28.665Z,72.27
2019-03-21T05:03:01.424Z,77.50
2019-03-21T05:05:32.323Z,73.80
2019-03-21T05:08:03.281Z,79.47
2019-03-21T05:10:34.256Z,79.63
2019-03-21T05:13:05.270Z,81.53
2019-03-21T05:15:38.794Z,83.90
2019-03-21T05:18:17.189Z,84.03
2019-03-21T05:20:48.191Z,76.43
2019-03-21T05:23:19.136Z,92.93
2019-03-21T05:25:50.081Z,80.90
2019-03-21T05:28:20.948Z,91.95
2019-03-21T05:30:56.606Z,93.03
2019-03-21T05:33:27.694Z,97.73
2019-03-21T05:35:58.622Z,95.90
2019-03-21T05:38:30.673Z,99.97
2019-03-21T05:41:01.719Z,103.33
2019-03-21T05:43:58.975Z,109.20
2019-03-21T05:46:30.204Z,105.10
2019-03-21T05:49:01.185Z,108.77
2019-03-21T05:52:00.108Z,113.07
2019-03-21T05:54:31.101Z,120.77
2019-03-21T05:57:02.157Z,118.67
2019-03-21T05:59:33.072Z,124.27
2019-03-21T06:02:04.201Z,116.13
2019-03-21T06:04:35.198Z,118.03
2019-03-21T06:07:43.544Z,119.47
2019-03-21T06:10:16.330Z,115.56
2019-03-21T06:12:47.867Z,116.90
2019-03-21T06:15:25.834Z,105.93
2019-03-21T06:18:34.452Z,114.83
2019-03-21T06:21:24.203Z,106.80
2019-03-21T06:25:08.426Z,103.10
2019-03-21T06:27:39.452Z,90.60
2019-03-21T06:30:12.267Z,99.83
2019-03-21T06:32:43.349Z,99.40
2019-03-21T06:35:24.350Z,95.42
2019-03-21T06:37:55.873Z,106.50
2019-03-21T06:40:27.176Z,104.90
2019-03-21T06:42:58.632Z,95.47
2019-03-21T06:45:30.076Z,94.20
2019-03-21T06:48:01.541Z,87.77
2019-03-21T06:50:33.065Z,84.23
2019-03-21T06:53:04.373Z,87.33
2019-03-21T06:55:35.889Z,71.37
2019-03-21T06:58:07.963Z,71.60
2019-03-21T07:00:39.319Z,64.40
2019-03-21T07:03:10.750Z,63.07
2019-03-21T07:05:41.929Z,66.30
2019-03-21T07:08:13.321Z,59.13
2019-03-21T07:10:44.408Z,57.23
2019-03-21T07:13:16.150Z,57.87
2019-03-21T07:15:47.494Z,58.90
2019-03-21T07:18:18.448Z,59.65
2019-03-21T07:20:49.506Z,61.65
2019-03-21T07:23:20.638Z,60.80
2019-03-21T07:25:51.786Z,58.87
2019-03-21T07:28:22.832Z,61.70
2019-03-21T07:30:53.926Z,55.20
2019-03-21T07:33:24.878Z,55.55
2019-03-21T07:35:55.916Z,52.62
2019-03-21T07:38:27.128Z,53.03
2019-03-21T07:40:58.167Z,54.10
2019-03-21T07:43:29.156Z,53.70
2019-03-21T07:46:02.615Z,54.40
2019-03-21T07:48:33.577Z,53.50
2019-03-21T07:51:06.890Z,51.90
2019-03-21T07:53:37.851Z,53.03
2019-03-21T07:56:08.933Z,48.00
2019-03-21T07:58:39.849Z,53.83
2019-03-21T08:01:10.935Z,48.20
2019-03-21T08:03:42.006Z,46.83
2019-03-21T08:06:13.202Z,51.40
2019-03-21T08:08:44.100Z,50.43
2019-03-21T08:11:15.032Z,47.85
2019-03-21T08:13:46.342Z,45.50
2019-03-21T08:16:20.155Z,46.67
2019-03-21T08:18:51.313Z,47.00
2019-03-21T08:21:22.247Z,44.03
2019-03-21T08:23:53.164Z,46.60
2019-03-21T08:26:24.156Z,46.88
2019-03-21T08:28:54.979Z,48.13
2019-03-21T08:31:25.909Z,46.70
2019-03-21T08:33:56.962Z,43.77
2019-03-21T08:36:28.047Z,44.77
2019-03-21T08:38:59.060Z,44.90
2019-03-21T08:41:30.158Z,43.77
2019-03-21T08:44:01.244Z,42.23
2019-03-21T08:46:32.189Z,46.80
2019-03-21T08:49:03.251Z,45.03
2019-03-21T08:51:34.301Z,42.80
2019-03-21T08:54:05.367Z,42.73
2019-03-21T08:56:36.451Z,43.93
2019-03-21T08:59:07.741Z,42.73
2019-03-21T09:01:38.962Z,37.83
2019-03-21T09:04:10.016Z,41.23
2019-03-21T09:06:41.097Z,39.07
2019-03-21T09:09:12.498Z,39.67
2019-03-21T09:11:43.954Z,37.63
2019-03-21T09:14:15.451Z,41.73
2019-03-21T09:16:46.634Z,43.43
2019-03-21T09:19:17.571Z,43.63
2019-03-21T09:21:48.482Z,42.80
2019-03-21T09:24:24.104Z,37.80
2019-03-21T09:26:55.170Z,40.47
2019-03-21T09:29:26.136Z,39.83
2019-03-21T09:31:57.179Z,40.67
2019-03-21T09:34:28.234Z,37.77
2019-03-21T09:36:59.292Z,39.70
2019-03-21T09:39:30.300Z,35.27
2019-03-21T09:42:01.598Z,35.73
2019-03-21T09:44:32.673Z,38.10
2019-03-21T09:47:03.779Z,38.97
2019-03-21T09:49:34.879Z,31.90
2019-03-21T09:52:05.962Z,26.30
2019-03-21T09:54:37.016Z,27.17
2019-03-21T09:57:08.064Z,23.47
2019-03-21T09:59:38.930Z,19.73
2019-03-21T10:02:09.945Z,20.50
2019-03-21T10:04:40.996Z,19.83
2019-03-21T10:07:11.939Z,21.00
2019-03-21T10:09:45.182Z,21.03
2019-03-21T10:12:16.871Z,21.50
2019-03-21T10:14:47.999Z,26.47
2019-03-21T10:17:19.079Z,23.42
2019-03-21T10:19:50.076Z,27.00
2019-03-21T10:22:21.063Z,31.57
2019-03-21T10:24:52.039Z,26.83
2019-03-21T10:27:23.043Z,30.00
2019-03-21T10:29:54.041Z,33.57
2019-03-21T10:32:25.052Z,31.68
2019-03-21T10:34:55.981Z,30.87
2019-03-21T10:37:26.912Z,32.77
2019-03-21T10:39:57.857Z,31.43
2019-03-21T10:42:28.884Z,31.37
2019-03-21T10:45:00.376Z,31.50
2019-03-21T10:47:31.495Z,38.03
2019-03-21T10:50:02.392Z,35.17
2019-03-21T10:52:33.477Z,37.77
2019-03-21T10:55:04.607Z,36.13
2019-03-21T10:57:35.586Z,41.93
2019-03-21T11:00:08.524Z,39.77
2019-03-21T11:02:39.574Z,41.07
2019-03-21T11:05:11.045Z,37.23
2019-03-21T11:07:42.075Z,37.80
2019-03-21T11:10:13.276Z,39.92
2019-03-21T11:12:44.475Z,41.30
2019-03-21T11:15:15.942Z,44.63
2019-03-21T11:17:47.047Z,45.87
2019-03-21T11:20:32.166Z,40.93
2019-03-21T11:23:03.396Z,48.30
2019-03-21T11:25:34.678Z,46.03
2019-03-21T11:28:06.915Z,51.83
2019-03-21T11:30:43.346Z,52.27
2019-03-21T11:33:14.399Z,45.30
2019-03-21T11:35:45.479Z,48.17
2019-03-21T11:38:16.624Z,48.60
2019-03-21T11:40:48.533Z,46.80
2019-03-21T11:43:20.543Z,50.97
2019-03-21T11:45:51.637Z,48.20
2019-03-21T11:48:22.636Z,46.97
2019-03-21T11:50:53.608Z,47.60
2019-03-21T11:53:24.576Z,46.27
2019-03-21T11:55:55.687Z,49.40
2019-03-21T11:58:26.772Z,48.63
2019-03-21T12:00:57.842Z,50.03
2019-03-21T12:03:29.033Z,50.30
2019-03-21T12:06:00.057Z,50.63
2019-03-21T12:08:32.347Z,49.97
2019-03-21T12:11:03.522Z,52.93
2019-03-21T12:13:34.383Z,50.83
2019-03-21T12:16:05.491Z,49.97
2019-03-21T12:18:36.589Z,54.73
2019-03-21T12:21:07.629Z,50.40
2019-03-21T12:23:38.599Z,52.37
2019-03-21T12:26:09.491Z,47.57
2019-03-21T12:28:40.520Z,53.67
2019-03-21T12:31:11.618Z,46.73
2019-03-21T12:33:42.801Z,49.17
2019-03-21T12:36:13.879Z,44.80
2019-03-21T12:38:44.906Z,44.70
2019-03-21T12:41:15.997Z,43.97
2019-03-21T12:43:47.162Z,43.47
2019-03-21T12:46:18.184Z,46.40
2019-03-21T12:48:52.269Z,43.47
2019-03-21T12:51:24.677Z,45.77
2019-03-21T12:53:55.770Z,41.13
2019-03-21T12:56:26.753Z,45.17
2019-03-21T12:59:00.428Z,45.03
2019-03-21T13:01:31.323Z,44.70
2019-03-21T13:04:02.380Z,44.63
2019-03-21T13:06:33.525Z,44.23
2019-03-21T13:09:06.337Z,45.17
2019-03-21T13:11:37.364Z,46.13
2019-03-21T13:14:08.484Z,47.70
2019-03-21T13:16:39.572Z,41.70
2019-03-21T13:19:10.600Z,40.03
2019-03-21T13:21:41.541Z,37.20
2019-03-21T13:24:12.524Z,37.27
2019-03-21T13:26:43.579Z,39.53
2019-03-21T13:29:14.583Z,34.90
2019-03-21T13:31:45.632Z,37.27
2019-03-21T13:34:16.563Z,36.47
2019-03-21T13:36:47.490Z,32.33
2019-03-21T13:39:18.419Z,35.70
2019-03-21T13:41:49.365Z,36.60
2019-03-21T13:44:20.333Z,35.17
2019-03-21T13:46:51.407Z,38.10
2019-03-21T13:49:22.627Z,39.40
2019-03-21T13:51:53.736Z,40.77
2019-03-21T13:54:24.699Z,37.05
2019-03-21T13:56:55.704Z,38.13
2019-03-21T13:59:26.678Z,37.53
2019-03-21T14:01:57.642Z,33.03
2019-03-21T14:04:28.560Z,36.77
2019-03-21T14:06:59.584Z,36.87
2019-03-21T14:09:30.584Z,35.53
2019-03-21T14:12:01.649Z,35.77
2019-03-21T14:14:32.685Z,33.37
2019-03-21T14:17:03.767Z,30.60
2019-03-21T14:19:34.879Z,32.73
2019-03-21T14:22:05.913Z,28.77
2019-03-21T14:24:36.958Z,28.33
2019-03-21T14:27:08.115Z,26.17
2019-03-21T14:29:39.266Z,27.40
2019-03-21T14:32:10.273Z,29.70
2019-03-21T14:34:41.223Z,28.70
2019-03-21T14:37:12.222Z,28.30
2019-03-21T14:39:43.264Z,25.27
2019-03-21T14:42:14.293Z,28.02
2019-03-21T14:44:45.230Z,25.63
2019-03-21T14:47:16.113Z,26.12
2019-03-21T14:49:47.196Z,23.87
2019-03-21T14:52:18.133Z,25.30
2019-03-21T14:54:49.195Z,25.80
2019-03-21T14:57:20.141Z,23.40
2019-03-21T14:59:51.229Z,24.47
2019-03-21T15:02:22.260Z,24.63
2019-03-21T15:04:53.237Z,23.00
2019-03-21T15:07:24.274Z,20.57
2019-03-21T15:09:55.354Z,22.73
2019-03-21T15:12:26.534Z,21.70
2019-03-21T15:14:57.705Z,21.17
2019-03-21T15:17:29.019Z,20.57
2019-03-21T15:20:00.181Z,20.43
2019-03-21T15:22:31.574Z,21.17
2019-03-21T15:25:02.676Z,22.27
2019-03-21T15:27:33.772Z,22.97
2019-03-21T15:30:05.957Z,22.83
2019-03-21T15:32:37.238Z,27.50
2019-03-21T15:35:10.611Z,25.20
2019-03-21T15:37:41.813Z,24.60
2019-03-21T15:40:13.606Z,25.82
2019-03-21T15:42:44.816Z,25.07
2019-03-21T15:45:22.644Z,25.00
2019-03-21T15:47:49.697Z,26.13
2019-03-21T15:50:32.702Z,24.97
2019-03-21T15:53:03.770Z,27.53
2019-03-21T15:55:35.103Z,27.00
2019-03-21T15:58:07.396Z,25.80
2019-03-21T16:00:42.590Z,24.43
2019-03-21T16:03:14.280Z,23.12
2019-03-21T16:05:45.362Z,23.00
2019-03-21T16:08:16.537Z,21.17
2019-03-21T16:10:47.387Z,20.23
2019-03-21T16:13:18.290Z,17.67
2019-03-21T16:15:49.218Z,18.37
2019-03-21T16:18:20.401Z,18.43
2019-03-21T16:20:51.403Z,19.75
2019-03-21T16:23:22.314Z,17.70
2019-03-21T16:25:53.390Z,18.83
2019-03-21T16:28:24.413Z,20.73
2019-03-21T16:30:55.272Z,20.20
2019-03-21T16:33:26.379Z,18.47
2019-03-21T16:35:57.402Z,19.73
2019-03-21T16:38:28.486Z,21.23
2019-03-21T16:40:59.489Z,22.67
2019-03-21T16:43:30.618Z,25.73
2019-03-21T16:46:01.647Z,23.17
2019-03-21T16:48:33.781Z,25.70
2019-03-21T16:51:05.195Z,25.00
2019-03-21T16:53:36.575Z,24.80
2019-03-21T16:56:08.064Z,26.17
2019-03-21T16:58:39.461Z,24.30
2019-03-21T17:01:11.083Z,24.53
2019-03-21T17:03:42.466Z,26.17
2019-03-21T17:06:13.630Z,26.37
2019-03-21T17:08:44.772Z,27.17
2019-03-21T17:11:15.796Z,28.50
2019-03-21T17:13:46.839Z,30.47
2019-03-21T17:16:17.886Z,30.33
2019-03-21T17:18:48.929Z,33.67
2019-03-21T17:21:20.062Z,34.45
2019-03-21T17:23:51.051Z,36.07
2019-03-21T17:26:22.122Z,35.25
2019-03-21T17:28:53.185Z,37.47
2019-03-21T17:31:24.196Z,39.83
2019-03-21T17:33:55.319Z,40.50
2019-03-21T17:36:26.461Z,38.07
2019-03-21T17:38:57.962Z,38.37
2019-03-21T17:41:29.212Z,37.93
2019-03-21T17:44:00.594Z,37.60
2019-03-21T17:46:32.166Z,44.35
2019-03-21T17:49:03.755Z,44.13
2019-03-21T17:51:35.102Z,43.67
2019-03-21T17:54:06.599Z,50.23
2019-03-21T17:59:15.822Z,46.87
2019-03-21T18:01:47.340Z,49.73
2019-03-21T18:04:18.618Z,52.65
2019-03-21T18:06:50.053Z,53.83
2019-03-21T18:09:21.837Z,52.47
2019-03-21T18:11:53.268Z,53.27
2019-03-21T18:14:24.732Z,55.90
2019-03-21T18:16:55.787Z,56.97
2019-03-21T18:19:26.816Z,51.40
2019-03-21T18:21:57.834Z,52.93
2019-03-21T18:24:28.937Z,52.50
2019-03-21T18:26:59.983Z,55.50
2019-03-21T18:29:31.050Z,60.83
2019-03-21T18:32:02.138Z,55.33
2019-03-21T18:34:33.302Z,61.43
2019-03-21T18:37:04.353Z,53.87
2019-03-21T18:39:35.407Z,56.63
2019-03-21T18:42:07.801Z,52.80
2019-03-21T18:44:38.747Z,52.70
2019-03-21T18:47:10.027Z,54.30
2019-03-21T18:49:44.045Z,48.00
2019-03-21T18:52:15.453Z,48.60
2019-03-21T18:54:46.775Z,49.77
2019-03-21T18:57:18.024Z,47.03
2019-03-21T18:59:49.299Z,49.53
2019-03-21T19:02:20.666Z,52.67
2019-03-21T19:04:52.415Z,50.70
2019-03-21T19:09:57.005Z,48.10
2019-03-21T19:12:28.385Z,50.60
2019-03-21T19:14:59.910Z,47.53
2019-03-21T19:17:32.032Z,47.60
2019-03-21T19:20:03.712Z,45.53
2019-03-21T19:22:35.015Z,42.80
2019-03-21T19:25:17.887Z,44.90
2019-03-21T19:27:40.406Z,43.20
2019-03-21T19:30:12.724Z,39.97
2019-03-21T19:32:44.081Z,37.70
2019-03-21T19:35:16.039Z,35.00
2019-03-21T19:37:47.510Z,34.77
2019-03-21T19:40:19.065Z,31.85
2019-03-21T19:42:50.477Z,32.23
2019-03-21T19:45:27.154Z,32.73
2019-03-21T19:47:58.887Z,30.57
2019-03-21T19:50:30.194Z,29.97
2019-03-21T19:53:01.524Z,29.90
2019-03-21T19:55:32.871Z,32.88
2019-03-21T19:58:04.744Z,29.40
2019-03-21T20:00:36.297Z,33.53
2019-03-21T20:03:08.121Z,29.67
2019-03-21T20:05:39.508Z,29.27
2019-03-21T20:08:10.903Z,32.20
2019-03-21T20:10:43.568Z,30.87
2019-03-21T20:13:15.495Z,31.47
2019-03-21T20:15:47.106Z,32.60
2019-03-21T20:18:18.317Z,33.98
2019-03-21T20:20:49.705Z,30.60
2019-03-21T20:23:21.288Z,32.80
2019-03-21T20:25:52.881Z,32.77
2019-03-21T20:28:26.040Z,32.20
2019-03-21T20:30:57.622Z,32.33
2019-03-21T20:33:29.020Z,32.40
2019-03-21T20:36:00.452Z,31.07
2019-03-21T20:38:31.949Z,30.80
2019-03-21T20:41:03.674Z,32.40
2019-03-21T20:43:35.023Z,31.60
2019-03-21T20:46:06.555Z,34.07
2019-03-21T20:48:34.994Z,31.13
2019-03-21T20:51:09.586Z,34.57
2019-03-21T20:53:40.960Z,35.07
2019-03-21T20:56:12.200Z,42.00
2019-03-21T20:58:43.517Z,46.53
2019-03-21T21:01:14.917Z,45.73
2019-03-21T21:03:46.189Z,50.57
2019-03-21T21:06:17.427Z,51.80
2019-03-21T21:11:22.123Z,45.83
2019-03-21T21:13:53.450Z,47.73
2019-03-21T21:16:24.734Z,44.13
2019-03-21T21:18:56.073Z,51.93
2019-03-21T21:21:27.471Z,52.97
2019-03-21T21:23:58.757Z,53.97
2019-03-21T21:26:30.023Z,45.23
2019-03-21T21:29:01.444Z,40.17
2019-03-21T21:31:33.289Z,49.10
2019-03-21T21:34:05.933Z,44.93
2019-03-21T21:36:37.308Z,44.47
2019-03-21T21:39:24.117Z,45.33
2019-03-21T21:41:55.568Z,45.43
2019-03-21T21:44:27.052Z,42.33
2019-03-21T21:46:58.410Z,37.33
2019-03-21T21:49:29.840Z,40.27
2019-03-21T21:52:01.298Z,38.77
2019-03-21T21:54:32.718Z,36.17
2019-03-21T21:57:04.115Z,37.87
2019-03-21T21:59:35.509Z,39.90
2019-03-21T22:02:08.105Z,43.50
2019-03-21T22:04:39.398Z,45.53
2019-03-21T22:07:11.132Z,43.63
2019-03-21T22:09:42.598Z,40.87
2019-03-21T22:12:14.078Z,39.60
2019-03-21T22:14:47.555Z,40.70
2019-03-21T22:17:18.879Z,42.03
2019-03-21T22:19:50.201Z,41.33
2019-03-21T22:22:21.941Z,41.23
2019-03-21T22:24:53.424Z,42.73
2019-03-21T22:27:24.742Z,39.20
2019-03-21T22:32:19.758Z,37.20
2019-03-21T22:34:50.793Z,40.40
2019-03-21T22:37:21.758Z,41.43
2019-03-21T22:39:52.609Z,38.87
2019-03-21T22:42:23.471Z,37.80
2019-03-21T22:44:54.345Z,40.83
2019-03-21T22:47:25.647Z,37.10
2019-03-21T22:49:56.592Z,35.37
2019-03-21T22:52:27.526Z,37.17
2019-03-21T22:54:58.472Z,39.03
2019-03-21T22:57:29.329Z,40.07
2019-03-21T23:00:00.446Z,38.00
2019-03-21T23:02:31.504Z,38.10
2019-03-21T23:05:02.449Z,39.03
2019-03-21T23:07:33.333Z,42.90
2019-03-21T23:10:04.671Z,47.70
2019-03-21T23:12:35.728Z,47.27
2019-03-21T23:15:08.358Z,50.85
2019-03-21T23:17:39.400Z,53.20
2019-03-21T23:20:11.191Z,49.20
2019-03-21T23:22:42.212Z,51.23
2019-03-21T23:25:16.569Z,52.53
2019-03-21T23:27:46.994Z,53.97
2019-03-21T23:30:18.178Z,53.80
2019-03-21T23:32:49.262Z,53.47
2019-03-21T23:35:20.304Z,52.57
2019-03-21T23:37:51.189Z,56.10
2019-03-21T23:40:22.246Z,57.07
2019-03-21T23:42:53.367Z,57.30
2019-03-21T23:45:24.497Z,59.30
2019-03-21T23:47:56.573Z,58.87
2019-03-21T23:50:27.614Z,59.33
2019-03-21T23:52:58.654Z,61.00
2019-03-21T23:55:29.569Z,68.07
2019-03-21T23:58:00.431Z,71.93
